Time;durP1;ratioP1;P1;durP2;ratioP2;P2;SDS_P1;SDS_P2;PMS_P1;PMS_P2;Temp;Humidity;BMP_temperature;BMP_pressure;BME280_temperature;BME280_humidity;BME280_pressure;Samples;Min_cycle;Max_cycle;Signal;HPM_P1;HPM_P2
2022/05/25 00:02:43;;;;;;;3.20;1.75;;;12.80;99.90;;;;;;12383393;28;20144;-80
2022/05/25 00:08:45;;;;;;;6.97;1.88;;;12.70;99.90;;;;;;12374393;28;20046;-81
2022/05/25 00:14:48;;;;;;;7.07;2.13;;;12.60;99.90;;;;;;12372711;28;20405;-81
2022/05/25 00:20:50;;;;;;;4.47;2.13;;;12.70;99.90;;;;;;12378762;28;20092;-81
2022/05/25 00:26:52;;;;;;;3.92;2.15;;;12.50;99.90;;;;;;12380178;28;20062;-82
2022/05/25 00:32:55;;;;;;;4.97;2.58;;;12.60;99.90;;;;;;12364536;28;20060;-81
2022/05/25 00:38:57;;;;;;;7.15;2.67;;;12.50;99.90;;;;;;12377302;28;20079;-80
2022/05/25 00:44:59;;;;;;;4.78;2.47;;;12.60;99.90;;;;;;12373356;28;20097;-81
2022/05/25 00:51:21;;;;;;;4.10;2.67;;;12.60;99.90;;;;;;12375074;28;20050;-81
2022/05/25 00:57:45;;;;;;;4.18;2.90;;;12.60;99.90;;;;;;12374980;28;20050;-81
2022/05/25 01:03:47;;;;;;;4.35;2.70;;;12.50;99.90;;;;;;12344451;28;20047;-81
2022/05/25 01:10:11;;;;;;;5.75;2.60;;;12.40;99.90;;;;;;12344652;28;20058;-81
2022/05/25 01:16:28;;;;;;;5.23;2.60;;;12.50;99.90;;;;;;12340594;28;20053;-81
2022/05/25 01:23:01;;;;;;;11.05;3.10;;;12.40;99.90;;;;;;12347054;28;20165;-81
2022/05/25 01:29:09;;;;;;;7.78;3.53;;;12.40;99.90;;;;;;12349322;28;20069;-81
2022/05/25 01:35:32;;;;;;;6.03;3.40;;;12.30;99.90;;;;;;12327044;28;20047;-81
2022/05/25 01:41:48;;;;;;;5.80;3.17;;;12.30;99.90;;;;;;12324181;28;20057;-80
2022/05/25 01:47:51;;;;;;;6.35;3.38;;;12.20;99.90;;;;;;12325262;28;20057;-81
2022/05/25 01:53:57;;;;;;;7.38;3.63;;;12.10;99.90;;;;;;12321386;28;20462;-81
2022/05/25 01:59:59;;;;;;;7.30;3.90;;;12.20;99.90;;;;;;12313783;28;20089;-80
2022/05/25 02:06:39;;;;;;;6.20;3.67;;;12.10;99.90;;;;;;12354296;28;20049;-82
2022/05/25 02:12:46;;;;;;;9.18;4.45;;;12.10;99.90;;;;;;12344062;28;20069;-81
2022/05/25 02:19:11;;;;;;;8.15;3.90;;;11.90;99.90;;;;;;12379546;28;20659;-79
2022/05/25 02:25:32;;;;;;;7.60;4.30;;;11.90;99.90;;;;;;12371098;28;20100;-81
2022/05/25 02:31:40;;;;;;;11.23;5.03;;;11.90;99.90;;;;;;12371218;28;20112;-81
2022/05/25 02:37:43;;;;;;;6.85;3.60;;;11.90;99.90;;;;;;12368217;28;20073;-81
2022/05/25 02:43:45;;;;;;;7.07;3.80;;;11.70;99.90;;;;;;12364559;28;20495;-81
2022/05/25 02:49:46;;;;;;;5.78;3.70;;;11.60;99.90;;;;;;12373016;28;20066;-80
2022/05/25 02:55:49;;;;;;;8.15;3.75;;;11.50;99.90;;;;;;12351064;28;20038;-79
2022/05/25 03:01:51;;;;;;;7.22;4.20;;;11.40;99.90;;;;;;12369916;28;20085;-81
2022/05/25 03:07:53;;;;;;;5.15;3.83;;;11.30;99.90;;;;;;12374648;28;20569;-80
2022/05/25 03:13:55;;;;;;;5.85;4.05;;;11.20;99.90;;;;;;12376429;28;20046;-81
2022/05/25 03:19:57;;;;;;;7.93;3.97;;;11.20;99.90;;;;;;12376394;28;20491;-81
2022/05/25 03:25:59;;;;;;;5.38;4.00;;;11.10;99.90;;;;;;12360593;28;20104;-81
2022/05/25 03:32:01;;;;;;;6.93;4.32;;;11.10;99.90;;;;;;12378004;28;20046;-82
2022/05/25 03:38:03;;;;;;;6.78;3.72;;;11.20;99.90;;;;;;12364678;28;20075;-80
2022/05/25 03:44:05;;;;;;;7.15;3.95;;;11.20;99.90;;;;;;12361462;28;20054;-82
2022/05/25 03:50:08;;;;;;;8.05;3.88;;;11.30;99.90;;;;;;12376736;28;20062;-81
2022/05/25 03:56:10;;;;;;;9.27;4.40;;;11.30;99.90;;;;;;12382876;28;20176;-81
2022/05/25 04:02:13;;;;;;;6.20;4.35;;;11.40;99.90;;;;;;12383078;28;20092;-81
2022/05/25 04:08:15;;;;;;;7.50;4.43;;;11.30;99.90;;;;;;12361209;28;20090;-81
2022/05/25 04:14:16;;;;;;;9.93;4.38;;;11.40;99.90;;;;;;12361795;28;20112;-81
2022/05/25 04:20:19;;;;;;;9.40;4.80;;;11.40;99.90;;;;;;12355467;28;20518;-81
2022/05/25 04:26:21;;;;;;;7.85;4.43;;;11.30;99.90;;;;;;12367969;28;20586;-80
2022/05/25 04:32:23;;;;;;;7.35;5.03;;;11.30;99.90;;;;;;12363377;28;20046;-81
2022/05/25 04:38:25;;;;;;;7.53;5.00;;;11.50;99.90;;;;;;12382545;28;20062;-81
2022/05/25 04:44:26;;;;;;;8.80;4.78;;;11.50;99.90;;;;;;12362787;28;20045;-81
2022/05/25 04:50:31;;;;;;;8.57;4.90;;;11.50;99.90;;;;;;12361430;28;20730;-81
2022/05/25 05:02:53;;;;;;;7.80;5.55;;;11.70;99.90;;;;;;12379811;28;20607;-82
2022/05/25 05:08:55;;;;;;;11.57;6.18;;;11.70;99.90;;;;;;12380449;28;20486;-81
2022/05/25 05:14:57;;;;;;;10.50;6.30;;;11.70;99.90;;;;;;12380620;28;20506;-82
2022/05/25 05:20:59;;;;;;;8.43;6.00;;;11.60;99.90;;;;;;12373640;28;20514;-81
2022/05/25 05:27:01;;;;;;;10.00;6.53;;;11.80;99.90;;;;;;12375461;28;20132;-82
2022/05/25 05:33:03;;;;;;;9.70;6.07;;;11.80;99.90;;;;;;12361528;28;20055;-82
2022/05/25 05:39:08;;;;;;;8.65;5.65;;;11.90;99.90;;;;;;12362648;28;20055;-82
2022/05/25 05:45:13;;;;;;;;;;;11.90;99.90;;;;;;12365756;28;20058;-82
2022/05/25 05:51:15;;;;;;;10.93;6.18;;;12.10;99.90;;;;;;12375800;28;19929;-82
2022/05/25 05:57:17;;;;;;;11.38;5.88;;;12.20;99.90;;;;;;12361318;28;20961;-82
2022/05/25 06:03:19;;;;;;;10.27;5.88;;;12.30;99.90;;;;;;12373509;28;20103;-82
2022/05/25 06:09:21;;;;;;;7.88;5.15;;;12.50;99.90;;;;;;12357772;28;20459;-83
2022/05/25 06:21:43;;;;;;;7.72;5.40;;;12.60;99.90;;;;;;12361357;28;20054;-82
2022/05/25 06:27:45;;;;;;;8.52;5.25;;;12.90;99.90;;;;;;12354761;28;20107;-81
2022/05/25 06:33:46;;;;;;;10.00;5.47;;;13.00;99.90;;;;;;12375977;28;20046;-82
2022/05/25 06:39:48;;;;;;;8.02;4.93;;;13.10;99.90;;;;;;12372505;28;20058;-81
2022/05/25 06:45:51;;;;;;;10.60;5.50;;;13.10;99.90;;;;;;12351619;28;20080;-82
2022/05/25 06:51:53;;;;;;;7.55;4.90;;;13.30;99.90;;;;;;12372813;28;20046;-82
2022/05/25 06:57:55;;;;;;;8.30;4.80;;;13.40;99.90;;;;;;12358001;28;20498;-81
2022/05/25 07:03:57;;;;;;;9.55;4.35;;;13.50;99.90;;;;;;12358888;28;20119;-82
2022/05/25 07:09:59;;;;;;;10.20;4.53;;;13.60;99.90;;;;;;12358355;28;20137;-82
2022/05/25 07:16:04;;;;;;;7.15;3.97;;;13.70;99.90;;;;;;12368737;28;20042;-81
2022/05/25 07:22:10;;;;;;;9.68;4.53;;;13.90;99.90;;;;;;12375486;28;20129;-81
2022/05/25 07:28:19;;;;;;;11.30;4.60;;;13.90;99.90;;;;;;12378969;28;20081;-82
2022/05/25 07:34:24;;;;;;;9.52;4.35;;;14.20;99.90;;;;;;12362708;28;20050;-83
2022/05/25 07:40:31;;;;;;;7.00;4.85;;;14.10;99.90;;;;;;12357130;28;20187;-81
2022/05/25 07:46:35;;;;;;;10.20;5.50;;;14.30;99.90;;;;;;12372731;28;20050;-84
2022/05/25 07:52:39;;;;;;;13.23;6.72;;;14.50;99.90;;;;;;12382381;28;20043;-81
2022/05/25 07:58:41;;;;;;;10.48;5.68;;;14.60;99.90;;;;;;12356554;28;20077;-82
2022/05/25 08:11:10;;;;;;;9.80;5.65;;;14.50;99.90;;;;;;12378667;28;20058;-83
2022/05/25 08:17:12;;;;;;;6.93;5.30;;;14.60;99.90;;;;;;12367809;28;20038;-84
2022/05/25 08:23:15;;;;;;;7.88;4.70;;;14.90;99.90;;;;;;12368968;28;20126;-83
2022/05/25 08:29:18;;;;;;;7.72;4.35;;;15.10;99.90;;;;;;12361692;28;20062;-82
2022/05/25 08:35:20;;;;;;;7.25;4.20;;;15.30;99.90;;;;;;12369275;28;20066;-82
2022/05/25 08:41:30;;;;;;;5.38;3.97;;;15.30;99.90;;;;;;12379793;28;20494;-83
2022/05/25 08:47:33;;;;;;;7.70;3.17;;;15.30;99.90;;;;;;12353401;28;20104;-81
2022/05/25 08:53:36;;;;;;;6.88;4.28;;;15.80;99.90;;;;;;12372424;28;20442;-84
2022/05/25 08:59:46;;;;;;;4.85;3.20;;;16.10;99.90;;;;;;12359425;28;20156;-83
2022/05/25 09:06:03;;;;;;;8.73;4.18;;;15.90;99.90;;;;;;12377059;28;20097;-83
2022/05/25 09:12:32;;;;;;;7.15;4.13;;;15.70;99.90;;;;;;12360718;28;20062;-82
2022/05/25 09:18:39;;;;;;;4.78;2.60;;;15.40;99.90;;;;;;12354415;28;20103;-83
2022/05/25 09:24:41;;;;;;;4.57;3.28;;;15.40;99.90;;;;;;12378612;28;20046;-83
2022/05/25 09:30:51;;;;;;;6.32;3.70;;;15.70;99.90;;;;;;12380344;28;20053;-83
2022/05/25 09:37:06;;;;;;;5.82;3.67;;;16.20;99.90;;;;;;12364031;28;20511;-83
2022/05/25 09:43:11;;;;;;;7.90;3.80;;;16.40;99.90;;;;;;12363333;28;20331;-83
2022/05/25 09:49:45;;;;;;;5.95;3.90;;;16.80;99.90;;;;;;12372088;28;20417;-83
2022/05/25 09:56:09;;;;;;;5.43;2.97;;;16.40;99.90;;;;;;12381153;28;20084;-83
2022/05/25 10:02:29;;;;;;;7.00;3.03;;;16.10;99.90;;;;;;12376751;28;20506;-83
2022/05/25 10:08:37;;;;;;;4.97;2.13;;;15.90;99.90;;;;;;12347079;28;20053;-83
2022/05/25 10:14:39;;;;;;;4.43;1.88;;;16.60;99.90;;;;;;12371787;28;20129;-82
2022/05/25 10:20:42;;;;;;;4.90;2.17;;;17.00;99.90;;;;;;12374794;28;20050;-82
2022/05/25 10:26:50;;;;;;;2.60;1.70;;;17.20;99.90;;;;;;12371089;28;20042;-81
2022/05/25 10:39:35;;;;;;;2.47;1.45;;;18.10;99.90;;;;;;12379827;28;20061;-83
2022/05/25 10:45:41;;;;;;;5.32;2.20;;;17.70;99.90;;;;;;12360980;28;20062;-83
2022/05/25 10:51:48;;;;;;;3.70;1.90;;;17.50;99.90;;;;;;12376953;28;20136;-83
2022/05/25 10:58:18;;;;;;;5.10;2.00;;;17.50;99.90;;;;;;12378444;28;20494;-84
2022/05/25 11:04:55;;;;;;;3.67;1.00;;;17.30;99.90;;;;;;12387048;28;20137;-83
2022/05/25 11:11:13;;;;;;;3.08;0.80;;;17.70;99.90;;;;;;12380489;28;20038;-83
2022/05/25 11:17:36;;;;;;;2.20;0.75;;;17.80;99.90;;;;;;12376806;28;20133;-82
2022/05/25 11:24:07;;;;;;;5.37;0.90;;;18.30;99.90;;;;;;12375340;28;20091;-82
2022/05/25 11:30:39;;;;;;;2.80;0.70;;;18.00;99.90;;;;;;12368950;28;20049;-81
2022/05/25 11:37:25;;;;;;;2.97;0.70;;;18.00;99.90;;;;;;12385172;28;20296;-81
2022/05/25 11:43:59;;;;;;;2.55;0.60;;;17.80;99.90;;;;;;12373762;28;20046;-81
2022/05/25 11:50:20;;;;;;;2.05;0.65;;;17.50;99.90;;;;;;12387479;28;20058;-83
2022/05/25 11:56:53;;;;;;;5.10;0.80;;;17.70;99.90;;;;;;12377696;28;20557;-82
2022/05/25 12:03:25;;;;;;;4.07;0.60;;;18.10;99.90;;;;;;12378764;28;20065;-80
2022/05/25 12:10:06;;;;;;;1.85;0.60;;;18.30;99.90;;;;;;12381091;28;20412;-83
2022/05/25 12:16:11;;;;;;;3.70;0.70;;;17.80;99.90;;;;;;12382911;28;20103;-81
2022/05/25 12:22:20;;;;;;;3.85;0.90;;;17.40;99.90;;;;;;12369839;28;20133;-82
2022/05/25 12:28:33;;;;;;;3.38;0.88;;;17.20;99.90;;;;;;12387803;28;20059;-82
2022/05/25 12:34:46;;;;;;;2.43;0.70;;;17.00;99.90;;;;;;12349558;28;20457;-82
2022/05/25 12:40:52;;;;;;;3.60;0.73;;;17.40;99.90;;;;;;12377068;28;20627;-81
2022/05/25 12:53:24;;;;;;;2.05;0.60;;;17.30;99.90;;;;;;12365990;28;20097;-83
2022/05/25 12:59:41;;;;;;;2.92;0.80;;;17.30;99.90;;;;;;12374841;28;20782;-83
2022/05/25 13:05:55;;;;;;;3.67;0.95;;;17.20;99.90;;;;;;12383735;28;20046;-83
2022/05/25 13:12:36;;;;;;;2.53;0.80;;;17.30;99.90;;;;;;12373140;28;20129;-83
2022/05/25 13:18:54;;;;;;;3.30;0.75;;;17.90;99.90;;;;;;12384091;28;20089;-80
2022/05/25 13:25:14;;;;;;;1.35;0.60;;;17.80;99.90;;;;;;12357799;28;20101;-81
2022/05/25 13:31:40;;;;;;;3.83;0.70;;;17.70;99.90;;;;;;12379316;28;20518;-82
2022/05/25 13:37:42;;;;;;;4.32;0.70;;;18.10;99.90;;;;;;12383488;28;20046;-81
2022/05/25 13:44:09;;;;;;;2.00;0.55;;;18.30;99.90;;;;;;12365363;28;20061;-82
2022/05/25 13:50:13;;;;;;;2.10;0.75;;;18.40;99.90;;;;;;12359718;28;20550;-83
2022/05/25 13:56:32;;;;;;;2.47;0.70;;;18.70;99.90;;;;;;12379616;28;20109;-84
2022/05/25 14:02:34;;;;;;;1.60;0.85;;;18.70;99.90;;;;;;12371439;28;20038;-81
2022/05/25 14:15:23;;;;;;;2.92;0.65;;;19.20;99.90;;;;;;12369694;28;20119;-83
2022/05/25 14:21:38;;;;;;;2.05;0.77;;;19.20;99.90;;;;;;12374983;28;20136;-82
2022/05/25 14:27:42;;;;;;;1.13;0.50;;;18.80;99.90;;;;;;12371028;28;20112;-81
2022/05/25 14:33:44;;;;;;;1.85;0.40;;;18.20;99.90;;;;;;12364307;28;20050;-83
2022/05/25 14:39:46;;;;;;;3.30;0.50;;;18.00;99.90;;;;;;12373339;28;20077;-82
2022/05/25 14:46:10;;;;;;;0.40;0.30;;;18.10;99.90;;;;;;12378252;28;20133;-80
2022/05/25 14:52:17;;;;;;;2.30;0.38;;;18.40;99.90;;;;;;12374372;28;20347;-81
2022/05/25 14:58:28;;;;;;;1.92;0.60;;;18.20;99.90;;;;;;12380722;28;20134;-83
2022/05/25 15:04:35;;;;;;;2.55;0.70;;;18.10;99.90;;;;;;12367626;28;20117;-83
2022/05/25 15:10:37;;;;;;;3.72;0.73;;;17.90;99.90;;;;;;12353589;28;20177;-83
2022/05/25 15:23:19;;;;;;;3.45;0.80;;;17.60;99.90;;;;;;12375686;28;20478;-83
2022/05/25 15:29:21;;;;;;;4.22;0.50;;;17.90;99.90;;;;;;12378634;28;20061;-82
2022/05/25 15:35:33;;;;;;;2.47;0.47;;;17.80;99.90;;;;;;12359276;28;20046;-82
2022/05/25 15:41:35;;;;;;;1.73;0.47;;;17.80;99.90;;;;;;12364173;28;20043;-82
2022/05/25 15:47:36;;;;;;;2.65;0.60;;;17.60;99.90;;;;;;12366109;28;23078;-83
2022/05/25 15:53:39;;;;;;;0.80;0.43;;;17.50;99.90;;;;;;12381753;28;20502;-84
2022/05/25 15:59:42;;;;;;;2.70;0.60;;;17.40;99.90;;;;;;12385176;28;20043;-80
2022/05/25 16:05:45;;;;;;;3.00;1.00;;;17.40;99.90;;;;;;12364987;28;20049;-83
2022/05/25 16:11:50;;;;;;;1.33;0.43;;;17.30;99.90;;;;;;12373311;28;20057;-81
2022/05/25 16:17:53;;;;;;;4.53;0.73;;;17.30;99.90;;;;;;12387724;28;20047;-81
2022/05/25 16:23:56;;;;;;;1.58;0.70;;;17.20;99.90;;;;;;12387599;28;20513;-82
2022/05/25 16:29:58;;;;;;;3.93;0.60;;;17.10;99.90;;;;;;12368107;28;20521;-82
2022/05/25 16:35:59;;;;;;;2.20;0.70;;;17.00;99.90;;;;;;12373086;28;20104;-81
2022/05/25 16:42:02;;;;;;;2.92;0.52;;;17.10;99.90;;;;;;12381463;28;20101;-82
2022/05/25 16:48:05;;;;;;;4.93;0.70;;;17.10;99.90;;;;;;12364629;28;20051;-83
2022/05/25 16:54:08;;;;;;;2.28;0.50;;;17.10;99.90;;;;;;12365548;28;20047;-82
2022/05/25 17:00:15;;;;;;;1.95;0.68;;;17.20;99.90;;;;;;12360471;28;20054;-81
2022/05/25 17:06:19;;;;;;;2.97;0.70;;;17.10;99.90;;;;;;12367746;28;20149;-81
2022/05/25 17:12:21;;;;;;;5.97;0.80;;;17.00;99.90;;;;;;12362711;28;20058;-82
2022/05/25 17:18:23;;;;;;;1.92;0.52;;;17.00;99.90;;;;;;12372847;28;20042;-82
2022/05/25 17:24:25;;;;;;;3.78;0.70;;;17.00;99.90;;;;;;12379814;28;20949;-81
2022/05/25 17:30:27;;;;;;;2.58;0.70;;;17.00;99.90;;;;;;12382213;28;20123;-82
2022/05/25 17:42:49;;;;;;;9.88;0.90;;;16.90;99.90;;;;;;12378632;28;20038;-82
2022/05/25 17:48:51;;;;;;;3.25;0.70;;;16.70;99.90;;;;;;12373894;28;20054;-82
2022/05/25 17:54:55;;;;;;;2.95;0.77;;;16.70;99.90;;;;;;12367419;28;20100;-82
2022/05/25 18:00:57;;;;;;;1.47;0.60;;;16.80;99.90;;;;;;12359133;28;20141;-82
2022/05/25 18:07:03;;;;;;;3.03;0.73;;;16.70;99.90;;;;;;12369010;28;20529;-82
2022/05/25 18:13:09;;;;;;;2.28;0.60;;;16.60;99.90;;;;;;12361972;28;20084;-82
2022/05/25 18:19:16;;;;;;;3.05;1.08;;;16.50;99.90;;;;;;12361326;28;20461;-82
2022/05/25 18:25:19;;;;;;;7.15;1.10;;;16.40;99.90;;;;;;12361351;28;20133;-82
2022/05/25 18:31:20;;;;;;;5.03;0.80;;;16.40;99.90;;;;;;12368313;28;20557;-82
2022/05/25 18:37:24;;;;;;;4.40;0.73;;;16.40;99.90;;;;;;12357989;28;20057;-82
2022/05/25 18:43:26;;;;;;;3.60;0.82;;;16.30;99.90;;;;;;12367919;28;20213;-82
2022/05/25 18:49:29;;;;;;;0.70;0.32;;;16.20;99.90;;;;;;12361285;28;20426;-82
2022/05/25 18:55:30;;;;;;;1.35;0.50;;;16.20;99.90;;;;;;12381183;28;20042;-83
2022/05/25 19:01:32;;;;;;;7.30;0.82;;;16.20;99.90;;;;;;12370310;28;20547;-83
2022/05/25 19:07:34;;;;;;;5.93;0.80;;;16.10;99.90;;;;;;12353493;28;20629;-83
2022/05/25 19:13:36;;;;;;;3.60;0.77;;;16.20;99.90;;;;;;12374603;28;20046;-82
2022/05/25 19:19:41;;;;;;;7.97;0.80;;;16.10;99.90;;;;;;12355199;28;20050;-82
2022/05/25 19:25:49;;;;;;;5.38;1.00;;;16.10;99.90;;;;;;12377165;28;20042;-81
2022/05/25 19:31:50;;;;;;;3.72;0.80;;;16.20;99.90;;;;;;12369903;28;20044;-82
2022/05/25 19:37:58;;;;;;;4.53;0.70;;;16.10;99.90;;;;;;12365648;28;20889;-82
2022/05/25 19:44:05;;;;;;;3.88;0.80;;;16.10;99.90;;;;;;12367277;28;20043;-82
2022/05/25 19:56:30;;;;;;;5.95;0.80;;;16.00;99.90;;;;;;12385428;28;20160;-82
2022/05/25 20:02:32;;;;;;;2.90;0.90;;;16.00;99.90;;;;;;12362047;28;20042;-81
2022/05/25 20:08:34;;;;;;;1.58;0.60;;;16.00;99.90;;;;;;12386379;28;20109;-82
2022/05/25 20:14:37;;;;;;;4.63;1.35;;;15.90;99.90;;;;;;12360442;28;20115;-80
2022/05/25 20:20:39;;;;;;;2.63;0.85;;;15.90;99.90;;;;;;12381731;28;20100;-82
2022/05/25 20:26:41;;;;;;;4.20;0.77;;;15.80;99.90;;;;;;12358508;28;20054;-80
2022/05/25 20:32:43;;;;;;;4.15;0.63;;;15.80;99.90;;;;;;12350644;28;20133;-80
2022/05/25 20:38:45;;;;;;;4.80;0.82;;;15.80;99.90;;;;;;12362532;28;20093;-82
2022/05/25 20:44:48;;;;;;;2.70;0.60;;;15.80;99.90;;;;;;12383090;28;20438;-81
2022/05/25 20:50:50;;;;;;;3.27;0.70;;;15.80;99.90;;;;;;12378044;28;20082;-82
2022/05/25 20:56:51;;;;;;;2.28;0.70;;;15.70;99.90;;;;;;12369918;28;20065;-82
2022/05/25 21:02:54;;;;;;;2.35;0.60;;;15.60;99.90;;;;;;12368005;28;20671;-82
2022/05/25 21:08:56;;;;;;;1.77;0.60;;;15.60;99.90;;;;;;12355232;28;20113;-80
2022/05/25 21:14:58;;;;;;;2.67;0.60;;;15.60;99.90;;;;;;12385220;28;20799;-82
2022/05/25 21:21:00;;;;;;;2.40;0.50;;;15.60;99.90;;;;;;12376447;28;20658;-82
2022/05/25 21:27:02;;;;;;;2.92;0.70;;;15.50;99.90;;;;;;12367775;28;20153;-81
2022/05/25 21:33:05;;;;;;;2.67;0.60;;;15.50;99.90;;;;;;12372560;28;20099;-83
2022/05/25 21:39:07;;;;;;;5.03;0.90;;;15.50;99.90;;;;;;12356977;28;20060;-82
2022/05/25 21:45:09;;;;;;;3.60;0.70;;;15.50;99.90;;;;;;12374685;28;20077;-83
2022/05/25 21:51:11;;;;;;;6.68;1.00;;;15.50;99.90;;;;;;12380360;28;20096;-82
2022/05/25 21:57:14;;;;;;;4.32;0.73;;;15.50;99.90;;;;;;12384415;28;20105;-82
2022/05/25 22:03:16;;;;;;;6.13;0.75;;;15.50;99.90;;;;;;12359225;28;20112;-82
2022/05/25 22:09:17;;;;;;;4.07;0.70;;;15.40;99.90;;;;;;12365810;28;20058;-82
2022/05/25 22:15:19;;;;;;;3.35;0.85;;;15.40;99.90;;;;;;12351149;28;20104;-82
2022/05/25 22:21:21;;;;;;;3.90;0.75;;;15.40;99.90;;;;;;12362062;28;20046;-81
2022/05/25 22:27:24;;;;;;;3.63;0.80;;;15.40;99.90;;;;;;12373838;28;20132;-81
2022/05/25 22:33:25;;;;;;;3.78;1.10;;;15.30;99.90;;;;;;12357666;28;20100;-79
2022/05/25 22:39:28;;;;;;;3.10;1.30;;;15.30;99.90;;;;;;12374989;28;20099;-82
2022/05/25 22:45:29;;;;;;;2.38;1.10;;;15.20;99.90;;;;;;12373224;28;20163;-82
2022/05/25 22:51:32;;;;;;;6.45;0.90;;;15.20;99.90;;;;;;12361066;28;20046;-81
2022/05/25 22:57:34;;;;;;;1.95;0.85;;;15.10;99.90;;;;;;12362727;28;20486;-82
2022/05/25 23:03:35;;;;;;;5.05;0.90;;;15.20;99.90;;;;;;12361882;28;20499;-82
2022/05/25 23:09:38;;;;;;;3.65;1.08;;;15.10;99.90;;;;;;12359480;28;20054;-81
2022/05/25 23:15:41;;;;;;;5.18;0.88;;;15.10;99.90;;;;;;12354890;28;20789;-81
2022/05/25 23:21:43;;;;;;;4.00;0.85;;;15.10;99.90;;;;;;12368727;28;20042;-80
2022/05/25 23:27:46;;;;;;;2.38;0.70;;;15.00;99.90;;;;;;12373397;28;20042;-81
2022/05/25 23:33:48;;;;;;;7.18;0.80;;;15.00;99.90;;;;;;12371351;28;20042;-81
2022/05/25 23:39:55;;;;;;;1.85;0.77;;;14.90;99.90;;;;;;12375348;28;20633;-81
2022/05/25 23:45:57;;;;;;;2.63;0.75;;;14.80;99.90;;;;;;12361277;28;20043;-81
2022/05/25 23:51:59;;;;;;;4.65;0.82;;;14.80;99.90;;;;;;12371169;28;20137;-81
2022/05/25 23:58:02;;;;;;;3.15;0.80;;;14.80;99.90;;;;;;12365436;28;20053;-80
